sensor_id;sensor_type;location;lat;lon;timestamp;pressure;altitude;pressure_sealevel;temperature;humidity
67740;BME280;54536;50.090;14.420;2022-09-09T00:01:11;99150.13;;;19.00;61.82
67740;BME280;54536;50.090;14.420;2022-09-09T00:06:24;99153.34;;;18.88;62.50
67740;BME280;54536;50.090;14.420;2022-09-09T00:11:40;99151.97;;;18.99;62.15
67740;BME280;54536;50.090;14.420;2022-09-09T00:14:29;99153.00;;;18.98;62.16
67740;BME280;54536;50.090;14.420;2022-09-09T00:17:02;99153.63;;;19.00;62.08
67740;BME280;54536;50.090;14.420;2022-09-09T00:19:41;99150.31;;;18.98;61.79
67740;BME280;54536;50.090;14.420;2022-09-09T00:22:20;99155.16;;;18.81;62.77
67740;BME280;54536;50.090;14.420;2022-09-09T00:24:55;99159.09;;;18.92;61.80
67740;BME280;54536;50.090;14.420;2022-09-09T00:32:50;99158.41;;;18.55;62.91
67740;BME280;54536;50.090;14.420;2022-09-09T00:35:24;99156.53;;;18.49;63.12
67740;BME280;54536;50.090;14.420;2022-09-09T00:37:54;99150.38;;;18.48;63.30
67740;BME280;54536;50.090;14.420;2022-09-09T00:40:29;99151.97;;;18.43;63.72
67740;BME280;54536;50.090;14.420;2022-09-09T00:43:33;99150.50;;;18.40;63.96
67740;BME280;54536;50.090;14.420;2022-09-09T00:51:48;99163.16;;;18.60;63.28
67740;BME280;54536;50.090;14.420;2022-09-09T01:02:16;99164.88;;;18.67;62.92
67740;BME280;54536;50.090;14.420;2022-09-09T01:04:48;99166.75;;;18.45;62.83
67740;BME280;54536;50.090;14.420;2022-09-09T01:07:18;99169.34;;;18.67;63.40
67740;BME280;54536;50.090;14.420;2022-09-09T01:09:57;99171.84;;;18.68;62.48
67740;BME280;54536;50.090;14.420;2022-09-09T01:12:42;99177.44;;;18.52;63.34
67740;BME280;54536;50.090;14.420;2022-09-09T01:15:11;99168.69;;;18.58;63.05
67740;BME280;54536;50.090;14.420;2022-09-09T01:17:50;99167.31;;;18.41;63.14
67740;BME280;54536;50.090;14.420;2022-09-09T01:20:28;99172.34;;;18.57;62.90
67740;BME280;54536;50.090;14.420;2022-09-09T01:28:13;99167.72;;;18.66;62.89
67740;BME280;54536;50.090;14.420;2022-09-09T01:30:42;99175.69;;;18.66;62.90
67740;BME280;54536;50.090;14.420;2022-09-09T01:33:14;99166.88;;;18.65;62.35
67740;BME280;54536;50.090;14.420;2022-09-09T01:36:13;99164.81;;;18.61;62.73
67740;BME280;54536;50.090;14.420;2022-09-09T01:38:41;99168.44;;;18.53;62.99
67740;BME280;54536;50.090;14.420;2022-09-09T01:41:07;99166.75;;;18.45;62.88
67740;BME280;54536;50.090;14.420;2022-09-09T01:43:34;99168.44;;;18.53;62.93
67740;BME280;54536;50.090;14.420;2022-09-09T01:46:01;99162.50;;;18.51;62.87
67740;BME280;54536;50.090;14.420;2022-09-09T01:48:28;99165.44;;;18.63;62.68
67740;BME280;54536;50.090;14.420;2022-09-09T01:50:55;99161.56;;;18.65;62.27
67740;BME280;54536;50.090;14.420;2022-09-09T01:53:22;99163.53;;;18.57;62.73
67740;BME280;54536;50.090;14.420;2022-09-09T01:59:02;99164.44;;;18.64;62.11
67740;BME280;54536;50.090;14.420;2022-09-09T02:01:34;99157.66;;;18.61;62.04
67740;BME280;54536;50.090;14.420;2022-09-09T02:04:14;99156.03;;;18.67;62.22
67740;BME280;54536;50.090;14.420;2022-09-09T02:06:45;99156.03;;;18.67;61.75
67740;BME280;54536;50.090;14.420;2022-09-09T02:09:19;99147.06;;;18.46;63.23
67740;BME280;54536;50.090;14.420;2022-09-09T02:11:57;99153.28;;;18.54;62.86
67740;BME280;54536;50.090;14.420;2022-09-09T02:14:35;99150.16;;;18.50;62.91
67740;BME280;54536;50.090;14.420;2022-09-09T02:17:10;99159.78;;;18.44;62.71
67740;BME280;54536;50.090;14.420;2022-09-09T02:19:45;99160.81;;;18.50;62.49
67740;BME280;54536;50.090;14.420;2022-09-09T02:22:22;99157.94;;;18.45;62.66
67740;BME280;54536;50.090;14.420;2022-09-09T02:24:52;99158.53;;;18.47;62.65
67740;BME280;54536;50.090;14.420;2022-09-09T02:27:23;99158.50;;;18.40;62.97
67740;BME280;54536;50.090;14.420;2022-09-09T02:29:51;99156.09;;;18.24;63.66
67740;BME280;54536;50.090;14.420;2022-09-09T02:32:22;99161.31;;;18.32;63.53
67740;BME280;54536;50.090;14.420;2022-09-09T02:34:55;99156.03;;;18.39;63.38
67740;BME280;54536;50.090;14.420;2022-09-09T02:37:28;99156.59;;;18.34;63.07
67740;BME280;54536;50.090;14.420;2022-09-09T02:39:56;99159.53;;;18.39;62.71
67740;BME280;54536;50.090;14.420;2022-09-09T02:42:22;99164.53;;;18.28;63.05
67740;BME280;54536;50.090;14.420;2022-09-09T02:44:49;99163.16;;;18.32;63.11
67740;BME280;54536;50.090;14.420;2022-09-09T02:50:23;99164.16;;;18.31;62.78
67740;BME280;54536;50.090;14.420;2022-09-09T02:55:47;99160.53;;;18.38;62.60
67740;BME280;54536;50.090;14.420;2022-09-09T02:58:18;99159.91;;;18.36;62.92
67740;BME280;54536;50.090;14.420;2022-09-09T03:00:49;99167.25;;;18.34;62.72
67740;BME280;54536;50.090;14.420;2022-09-09T03:03:19;99167.44;;;18.33;62.38
67740;BME280;54536;50.090;14.420;2022-09-09T03:05:46;99172.59;;;18.13;63.24
67740;BME280;54536;50.090;14.420;2022-09-09T03:08:13;99168.72;;;17.94;63.66
67740;BME280;54536;50.090;14.420;2022-09-09T03:10:39;99170.50;;;18.08;63.99
67740;BME280;54536;50.090;14.420;2022-09-09T03:13:05;99168.09;;;18.13;63.44
67740;BME280;54536;50.090;14.420;2022-09-09T03:15:34;99169.34;;;18.17;62.87
67740;BME280;54536;50.090;14.420;2022-09-09T03:18:00;99167.28;;;18.13;63.70
67740;BME280;54536;50.090;14.420;2022-09-09T03:20:29;99168.00;;;17.85;64.05
67740;BME280;54536;50.090;14.420;2022-09-09T03:22:56;99163.84;;;17.97;64.49
67740;BME280;54536;50.090;14.420;2022-09-09T03:25:23;99164.13;;;18.02;63.93
67740;BME280;54536;50.090;14.420;2022-09-09T03:27:51;99168.63;;;18.02;63.66
67740;BME280;54536;50.090;14.420;2022-09-09T03:30:24;99157.81;;;18.10;63.49
67740;BME280;54536;50.090;14.420;2022-09-09T03:32:50;99169.06;;;18.06;63.78
67740;BME280;54536;50.090;14.420;2022-09-09T03:35:19;99169.88;;;18.06;63.74
67740;BME280;54536;50.090;14.420;2022-09-09T03:37:45;99176.09;;;18.13;63.37
67740;BME280;54536;50.090;14.420;2022-09-09T03:40:12;99174.56;;;18.04;63.57
67740;BME280;54536;50.090;14.420;2022-09-09T03:42:39;99177.91;;;17.91;64.11
67740;BME280;54536;50.090;14.420;2022-09-09T03:45:08;99187.28;;;17.87;63.77
67740;BME280;54536;50.090;14.420;2022-09-09T03:47:35;99179.56;;;17.92;63.98
67740;BME280;54536;50.090;14.420;2022-09-09T03:50:01;99175.44;;;17.90;63.38
67740;BME280;54536;50.090;14.420;2022-09-09T03:52:27;99172.06;;;17.81;64.37
67740;BME280;54536;50.090;14.420;2022-09-09T03:54:54;99171.81;;;17.97;63.45
67740;BME280;54536;50.090;14.420;2022-09-09T03:57:20;99166.56;;;18.04;63.45
67740;BME280;54536;50.090;14.420;2022-09-09T03:59:47;99164.34;;;18.08;63.53
67740;BME280;54536;50.090;14.420;2022-09-09T04:02:13;99166.03;;;18.09;63.59
67740;BME280;54536;50.090;14.420;2022-09-09T04:04:40;99164.19;;;18.09;63.16
67740;BME280;54536;50.090;14.420;2022-09-09T04:07:06;99167.50;;;18.18;62.76
67740;BME280;54536;50.090;14.420;2022-09-09T04:09:33;99172.09;;;18.02;63.13
67740;BME280;54536;50.090;14.420;2022-09-09T04:11:59;99169.28;;;18.11;62.75
67740;BME280;54536;50.090;14.420;2022-09-09T04:14:25;99166.91;;;18.16;62.60
67740;BME280;54536;50.090;14.420;2022-09-09T04:16:54;99176.34;;;18.18;62.76
67740;BME280;54536;50.090;14.420;2022-09-09T04:19:23;99177.97;;;18.19;62.47
67740;BME280;54536;50.090;14.420;2022-09-09T04:21:49;99170.22;;;18.24;62.27
67740;BME280;54536;50.090;14.420;2022-09-09T04:24:17;99169.56;;;18.16;62.67
67740;BME280;54536;50.090;14.420;2022-09-09T04:26:43;99160.16;;;18.20;62.61
67740;BME280;54536;50.090;14.420;2022-09-09T04:29:09;99165.75;;;18.25;61.89
67740;BME280;54536;50.090;14.420;2022-09-09T04:31:36;99175.19;;;18.06;62.48
67740;BME280;54536;50.090;14.420;2022-09-09T04:34:03;99169.19;;;18.19;62.48
67740;BME280;54536;50.090;14.420;2022-09-09T04:36:33;99167.56;;;18.24;62.37
67740;BME280;54536;50.090;14.420;2022-09-09T04:39:00;99175.75;;;18.23;62.19
67740;BME280;54536;50.090;14.420;2022-09-09T04:41:27;99172.41;;;18.14;62.48
67740;BME280;54536;50.090;14.420;2022-09-09T04:43:54;99173.47;;;18.20;62.54
67740;BME280;54536;50.090;14.420;2022-09-09T04:46:21;99177.34;;;18.17;61.88
67740;BME280;54536;50.090;14.420;2022-09-09T04:48:49;99183.69;;;18.16;62.32
67740;BME280;54536;50.090;14.420;2022-09-09T04:51:16;99180.63;;;17.98;62.91
67740;BME280;54536;50.090;14.420;2022-09-09T04:53:42;99182.03;;;18.15;62.66
67740;BME280;54536;50.090;14.420;2022-09-09T04:56:13;99185.09;;;18.12;62.40
67740;BME280;54536;50.090;14.420;2022-09-09T04:58:41;99185.31;;;18.17;62.27
67740;BME280;54536;50.090;14.420;2022-09-09T05:01:17;99182.22;;;18.14;62.33
67740;BME280;54536;50.090;14.420;2022-09-09T05:03:44;99174.69;;;18.17;62.12
67740;BME280;54536;50.090;14.420;2022-09-09T05:06:16;99174.69;;;18.17;62.75
67740;BME280;54536;50.090;14.420;2022-09-09T05:08:43;99181.09;;;18.23;62.25
67740;BME280;54536;50.090;14.420;2022-09-09T05:13:44;99192.56;;;18.23;62.14
67740;BME280;54536;50.090;14.420;2022-09-09T05:16:11;99185.88;;;18.34;62.00
67740;BME280;54536;50.090;14.420;2022-09-09T05:18:41;99197.94;;;18.30;62.26
67740;BME280;54536;50.090;14.420;2022-09-09T05:21:14;99195.59;;;18.42;61.69
67740;BME280;54536;50.090;14.420;2022-09-09T05:23:40;99197.06;;;18.23;62.50
67740;BME280;54536;50.090;14.420;2022-09-09T05:26:11;99196.72;;;18.33;62.19
67740;BME280;54536;50.090;14.420;2022-09-09T05:28:38;99196.53;;;18.34;61.94
67740;BME280;54536;50.090;14.420;2022-09-09T05:31:09;99193.09;;;18.40;61.44
67740;BME280;54536;50.090;14.420;2022-09-09T05:33:38;99197.22;;;18.43;61.96
67740;BME280;54536;50.090;14.420;2022-09-09T05:36:11;99200.03;;;18.35;61.97
67740;BME280;54536;50.090;14.420;2022-09-09T05:38:40;99200.97;;;18.48;61.92
67740;BME280;54536;50.090;14.420;2022-09-09T05:41:07;99204.19;;;18.44;61.67
67740;BME280;54536;50.090;14.420;2022-09-09T05:43:34;99200.66;;;18.37;61.82
67740;BME280;54536;50.090;14.420;2022-09-09T05:48:36;99195.66;;;18.48;61.35
67740;BME280;54536;50.090;14.420;2022-09-09T05:51:05;99199.50;;;18.24;61.82
67740;BME280;54536;50.090;14.420;2022-09-09T05:53:33;99199.72;;;18.23;62.05
67740;BME280;54536;50.090;14.420;2022-09-09T05:56:08;99203.25;;;18.30;61.89
67740;BME280;54536;50.090;14.420;2022-09-09T05:58:37;99197.13;;;18.30;62.04
67740;BME280;54536;50.090;14.420;2022-09-09T06:03:34;99209.47;;;18.37;61.83
67740;BME280;54536;50.090;14.420;2022-09-09T06:06:04;99204.72;;;18.33;62.42
67740;BME280;54536;50.090;14.420;2022-09-09T06:08:34;99216.56;;;18.30;62.35
67740;BME280;54536;50.090;14.420;2022-09-09T06:11:08;99216.84;;;18.35;62.00
67740;BME280;54536;50.090;14.420;2022-09-09T06:13:35;99223.41;;;18.18;62.17
67740;BME280;54536;50.090;14.420;2022-09-09T06:16:09;99225.50;;;18.22;62.49
67740;BME280;54536;50.090;14.420;2022-09-09T06:18:56;99225.88;;;18.19;62.25
67740;BME280;54536;50.090;14.420;2022-09-09T06:21:26;99222.97;;;18.14;62.45
67740;BME280;54536;50.090;14.420;2022-09-09T06:23:52;99225.38;;;18.09;62.79
67740;BME280;54536;50.090;14.420;2022-09-09T06:26:19;99226.06;;;18.18;62.44
67740;BME280;54536;50.090;14.420;2022-09-09T06:28:48;99213.72;;;18.10;62.93
67740;BME280;54536;50.090;14.420;2022-09-09T06:31:18;99227.09;;;18.38;61.77
67740;BME280;54536;50.090;14.420;2022-09-09T06:33:50;99222.53;;;18.32;62.06
67740;BME280;54536;50.090;14.420;2022-09-09T06:36:22;99228.75;;;18.39;61.71
67740;BME280;54536;50.090;14.420;2022-09-09T06:38:49;99230.59;;;18.39;61.69
67740;BME280;54536;50.090;14.420;2022-09-09T06:41:18;99242.44;;;18.15;62.67
67740;BME280;54536;50.090;14.420;2022-09-09T06:43:45;99231.41;;;18.61;61.34
67740;BME280;54536;50.090;14.420;2022-09-09T06:46:20;99225.22;;;18.82;60.33
67740;BME280;54536;50.090;14.420;2022-09-09T06:48:54;99215.25;;;18.69;60.76
67740;BME280;54536;50.090;14.420;2022-09-09T06:51:33;99215.34;;;18.76;60.67
67740;BME280;54536;50.090;14.420;2022-09-09T06:54:01;99220.72;;;18.82;61.04
67740;BME280;54536;50.090;14.420;2022-09-09T06:56:33;99222.13;;;18.78;60.74
67740;BME280;54536;50.090;14.420;2022-09-09T06:59:04;99219.94;;;18.88;60.20
67740;BME280;54536;50.090;14.420;2022-09-09T07:01:34;99221.78;;;18.88;60.25
67740;BME280;54536;50.090;14.420;2022-09-09T07:04:01;99220.63;;;18.97;60.13
67740;BME280;54536;50.090;14.420;2022-09-09T07:06:31;99219.66;;;19.05;59.99
67740;BME280;54536;50.090;14.420;2022-09-09T07:09:01;99217.81;;;19.05;59.92
67740;BME280;54536;50.090;14.420;2022-09-09T07:11:33;99221.50;;;19.04;59.89
67740;BME280;54536;50.090;14.420;2022-09-09T07:14:00;99213.72;;;19.09;59.89
67740;BME280;54536;50.090;14.420;2022-09-09T07:16:27;99216.47;;;19.23;59.53
67740;BME280;54536;50.090;14.420;2022-09-09T07:18:55;99222.66;;;19.23;60.11
67740;BME280;54536;50.090;14.420;2022-09-09T07:21:25;99219.81;;;19.31;59.60
67740;BME280;54536;50.090;14.420;2022-09-09T07:23:52;99214.06;;;19.34;59.41
67740;BME280;54536;50.090;14.420;2022-09-09T07:26:21;99210.16;;;19.30;59.64
67740;BME280;54536;50.090;14.420;2022-09-09T07:28:48;99212.09;;;19.43;59.61
67740;BME280;54536;50.090;14.420;2022-09-09T07:31:17;99215.97;;;19.40;59.62
67740;BME280;54536;50.090;14.420;2022-09-09T07:33:44;99209.72;;;19.68;58.83
67740;BME280;54536;50.090;14.420;2022-09-09T07:36:17;99217.56;;;19.70;58.78
67740;BME280;54536;50.090;14.420;2022-09-09T07:38:47;99213.47;;;19.74;58.23
67740;BME280;54536;50.090;14.420;2022-09-09T07:41:41;99223.09;;;19.75;58.32
67740;BME280;54536;50.090;14.420;2022-09-09T07:47:27;99227.69;;;20.01;57.51
67740;BME280;54536;50.090;14.420;2022-09-09T07:49:53;99232.47;;;20.12;57.41
67740;BME280;54536;50.090;14.420;2022-09-09T07:52:20;99223.25;;;20.21;57.38
67740;BME280;54536;50.090;14.420;2022-09-09T07:54:47;99219.34;;;20.37;57.35
67740;BME280;54536;50.090;14.420;2022-09-09T07:57:13;99225.97;;;20.61;56.39
67740;BME280;54536;50.090;14.420;2022-09-09T07:59:41;99217.34;;;20.66;55.88
67740;BME280;54536;50.090;14.420;2022-09-09T08:02:09;99214.25;;;20.69;56.05
67740;BME280;54536;50.090;14.420;2022-09-09T08:04:35;99225.56;;;20.71;55.63
67740;BME280;54536;50.090;14.420;2022-09-09T08:07:02;99224.94;;;20.75;55.91
67740;BME280;54536;50.090;14.420;2022-09-09T08:09:29;99218.59;;;20.76;55.64
67740;BME280;54536;50.090;14.420;2022-09-09T08:11:56;99216.94;;;20.75;56.04
67740;BME280;54536;50.090;14.420;2022-09-09T08:14:22;99224.09;;;20.95;55.50
67740;BME280;54536;50.090;14.420;2022-09-09T08:16:50;99226.97;;;21.07;55.35
67740;BME280;54536;50.090;14.420;2022-09-09T08:19:16;99228.41;;;21.16;55.51
67740;BME280;54536;50.090;14.420;2022-09-09T08:21:44;99233.09;;;21.27;55.21
67740;BME280;54536;50.090;14.420;2022-09-09T08:24:11;99236.59;;;21.41;54.23
67740;BME280;54536;50.090;14.420;2022-09-09T08:26:42;99244.97;;;21.58;53.63
67740;BME280;54536;50.090;14.420;2022-09-09T08:29:10;99243.69;;;21.73;54.29
67740;BME280;54536;50.090;14.420;2022-09-09T08:31:45;99239.19;;;21.61;53.98
67740;BME280;54536;50.090;14.420;2022-09-09T08:34:12;99243.94;;;21.65;54.20
67740;BME280;54536;50.090;14.420;2022-09-09T08:36:44;99244.34;;;21.62;54.16
67740;BME280;54536;50.090;14.420;2022-09-09T08:39:12;99241.25;;;21.65;55.01
67740;BME280;54536;50.090;14.420;2022-09-09T08:45:23;99237.31;;;21.68;54.51
67740;BME280;54536;50.090;14.420;2022-09-09T08:48:12;99236.31;;;21.62;54.75
67740;BME280;54536;50.090;14.420;2022-09-09T08:50:44;99235.69;;;21.60;54.76
67740;BME280;54536;50.090;14.420;2022-09-09T08:53:24;99234.63;;;21.74;54.45
67740;BME280;54536;50.090;14.420;2022-09-09T08:55:55;99240.91;;;21.93;54.65
67740;BME280;54536;50.090;14.420;2022-09-09T08:58:35;99240.50;;;21.90;54.27
67740;BME280;54536;50.090;14.420;2022-09-09T09:09:11;99235.94;;;21.97;54.19
67740;BME280;54536;50.090;14.420;2022-09-09T09:11:54;99232.41;;;22.03;54.02
67740;BME280;54536;50.090;14.420;2022-09-09T09:14:24;99223.69;;;22.21;54.44
67740;BME280;54536;50.090;14.420;2022-09-09T09:19:21;99226.53;;;22.26;53.26
67740;BME280;54536;50.090;14.420;2022-09-09T09:22:22;99214.03;;;22.45;52.54
67740;BME280;54536;50.090;14.420;2022-09-09T09:24:56;99215.09;;;22.44;51.73
67740;BME280;54536;50.090;14.420;2022-09-09T09:27:35;99213.38;;;22.50;51.30
67740;BME280;54536;50.090;14.420;2022-09-09T09:30:15;99210.66;;;22.56;50.91
67740;BME280;54536;50.090;14.420;2022-09-09T09:35:19;99207.53;;;22.84;50.71
67740;BME280;54536;50.090;14.420;2022-09-09T09:37:45;99209.16;;;22.85;50.44
67740;BME280;54536;50.090;14.420;2022-09-09T09:40:18;99203.94;;;22.97;50.56
67740;BME280;54536;50.090;14.420;2022-09-09T09:45:44;99195.06;;;23.15;49.33
67740;BME280;54536;50.090;14.420;2022-09-09T09:48:12;99197.41;;;23.30;49.00
67740;BME280;54536;50.090;14.420;2022-09-09T09:53:25;99187.47;;;23.49;48.52
67740;BME280;54536;50.090;14.420;2022-09-09T09:56:13;99194.31;;;23.63;48.32
67740;BME280;54536;50.090;14.420;2022-09-09T10:01:28;99185.19;;;23.82;46.56
67740;BME280;54536;50.090;14.420;2022-09-09T10:06:40;99187.50;;;23.97;43.07
67740;BME280;54536;50.090;14.420;2022-09-09T10:09:38;99186.00;;;24.13;44.64
67740;BME280;54536;50.090;14.420;2022-09-09T10:17:54;99170.63;;;24.32;43.00
67740;BME280;54536;50.090;14.420;2022-09-09T10:37:41;99159.25;;;24.60;42.07
67740;BME280;54536;50.090;14.420;2022-09-09T10:51:36;99151.34;;;25.29;40.44
67740;BME280;54536;50.090;14.420;2022-09-09T10:56:55;99138.72;;;25.58;39.93
67740;BME280;54536;50.090;14.420;2022-09-09T10:59:31;99139.34;;;25.77;38.80
67740;BME280;54536;50.090;14.420;2022-09-09T11:02:02;99132.47;;;25.98;38.49
67740;BME280;54536;50.090;14.420;2022-09-09T11:04:44;99128.59;;;26.56;37.48
67740;BME280;54536;50.090;14.420;2022-09-09T11:07:24;99128.91;;;26.43;37.19
67740;BME280;54536;50.090;14.420;2022-09-09T11:10:00;99133.97;;;26.23;37.11
67740;BME280;54536;50.090;14.420;2022-09-09T11:12:30;99138.47;;;26.17;37.40
67740;BME280;54536;50.090;14.420;2022-09-09T11:15:08;99132.41;;;26.10;37.31
67740;BME280;54536;50.090;14.420;2022-09-09T11:17:55;99136.13;;;25.92;38.31
67740;BME280;54536;50.090;14.420;2022-09-09T11:20:22;99141.63;;;25.68;38.82
67740;BME280;54536;50.090;14.420;2022-09-09T11:31:27;99146.31;;;25.21;40.12
67740;BME280;54536;50.090;14.420;2022-09-09T11:42:15;99142.88;;;24.50;47.69
67740;BME280;54536;50.090;14.420;2022-09-09T11:44:44;99146.09;;;24.28;48.72
67740;BME280;54536;50.090;14.420;2022-09-09T11:47:30;99143.94;;;24.07;51.96
67740;BME280;54536;50.090;14.420;2022-09-09T11:55:32;99156.22;;;23.73;54.27
67740;BME280;54536;50.090;14.420;2022-09-09T11:58:01;99168.44;;;23.50;59.67
67740;BME280;54536;50.090;14.420;2022-09-09T12:00:40;99167.19;;;23.53;55.84
67740;BME280;54536;50.090;14.420;2022-09-09T12:08:55;99164.00;;;22.82;48.20
67740;BME280;54536;50.090;14.420;2022-09-09T12:11:28;99162.28;;;22.95;51.05
67740;BME280;54536;50.090;14.420;2022-09-09T12:13:59;99157.19;;;22.86;54.68
67740;BME280;54536;50.090;14.420;2022-09-09T12:16:30;99148.16;;;22.81;49.86
67740;BME280;54536;50.090;14.420;2022-09-09T12:19:20;99145.56;;;22.74;50.54
67740;BME280;54536;50.090;14.420;2022-09-09T12:27:34;99159.13;;;22.54;53.52
67740;BME280;54536;50.090;14.420;2022-09-09T12:30:10;99156.41;;;22.36;54.68
67740;BME280;54536;50.090;14.420;2022-09-09T12:32:38;99143.75;;;22.43;54.56
67740;BME280;54536;50.090;14.420;2022-09-09T12:35:22;99155.25;;;22.50;55.32
67740;BME280;54536;50.090;14.420;2022-09-09T12:38:15;99171.50;;;22.30;55.29
67740;BME280;54536;50.090;14.420;2022-09-09T12:40:55;99175.25;;;22.23;55.85
67740;BME280;54536;50.090;14.420;2022-09-09T12:43:24;99174.53;;;22.02;57.44
67740;BME280;54536;50.090;14.420;2022-09-09T12:45:57;99159.88;;;21.73;55.84
67740;BME280;54536;50.090;14.420;2022-09-09T12:48:35;99160.28;;;21.77;57.48
67740;BME280;54536;50.090;14.420;2022-09-09T12:51:06;99168.88;;;21.85;55.66
67740;BME280;54536;50.090;14.420;2022-09-09T12:53:42;99180.47;;;21.72;53.60
67740;BME280;54536;50.090;14.420;2022-09-09T12:56:19;99186.94;;;21.58;52.47
67740;BME280;54536;50.090;14.420;2022-09-09T12:58:49;99203.81;;;21.59;50.96
67740;BME280;54536;50.090;14.420;2022-09-09T13:01:26;99223.84;;;21.36;52.91
67740;BME280;54536;50.090;14.420;2022-09-09T13:03:55;99230.22;;;21.22;53.59
67740;BME280;54536;50.090;14.420;2022-09-09T13:06:24;99233.75;;;21.02;55.47
67740;BME280;54536;50.090;14.420;2022-09-09T13:08:53;99204.56;;;20.34;59.15
67740;BME280;54536;50.090;14.420;2022-09-09T13:13:54;99197.38;;;20.48;58.43
67740;BME280;54536;50.090;14.420;2022-09-09T13:16:31;99194.09;;;20.73;56.64
67740;BME280;54536;50.090;14.420;2022-09-09T13:19:10;99189.38;;;20.88;58.22
67740;BME280;54536;50.090;14.420;2022-09-09T13:21:40;99174.94;;;20.96;56.47
67740;BME280;54536;50.090;14.420;2022-09-09T13:26:58;99172.44;;;21.21;56.80
67740;BME280;54536;50.090;14.420;2022-09-09T13:29:27;99183.69;;;21.49;56.81
67740;BME280;54536;50.090;14.420;2022-09-09T13:32:04;99177.84;;;21.66;56.13
67740;BME280;54536;50.090;14.420;2022-09-09T13:34:33;99173.47;;;22.10;55.93
67740;BME280;54536;50.090;14.420;2022-09-09T13:37:03;99184.28;;;22.28;55.03
67740;BME280;54536;50.090;14.420;2022-09-09T13:39:36;99170.56;;;22.18;54.73
67740;BME280;54536;50.090;14.420;2022-09-09T13:42:04;99171.94;;;22.52;54.35
67740;BME280;54536;50.090;14.420;2022-09-09T13:44:37;99153.97;;;22.53;54.47
67740;BME280;54536;50.090;14.420;2022-09-09T13:47:29;99146.34;;;22.56;53.56
67740;BME280;54536;50.090;14.420;2022-09-09T13:49:56;99137.69;;;22.54;54.30
67740;BME280;54536;50.090;14.420;2022-09-09T13:52:23;99133.47;;;22.65;53.30
67740;BME280;54536;50.090;14.420;2022-09-09T13:54:50;99131.09;;;22.75;52.66
67740;BME280;54536;50.090;14.420;2022-09-09T13:57:20;99127.91;;;22.66;52.78
67740;BME280;54536;50.090;14.420;2022-09-09T13:59:48;99136.00;;;22.78;52.71
67740;BME280;54536;50.090;14.420;2022-09-09T14:02:18;99126.78;;;22.74;52.51
67740;BME280;54536;50.090;14.420;2022-09-09T14:04:44;99132.16;;;22.74;52.86
67740;BME280;54536;50.090;14.420;2022-09-09T14:07:16;99130.38;;;22.86;52.73
67740;BME280;54536;50.090;14.420;2022-09-09T14:09:43;99126.25;;;23.09;51.54
67740;BME280;54536;50.090;14.420;2022-09-09T14:12:13;99128.84;;;22.97;52.30
67740;BME280;54536;50.090;14.420;2022-09-09T14:14:41;99130.09;;;22.95;52.69
67740;BME280;54536;50.090;14.420;2022-09-09T14:17:10;99126.91;;;23.04;53.12
67740;BME280;54536;50.090;14.420;2022-09-09T14:19:36;99131.81;;;23.07;53.61
67740;BME280;54536;50.090;14.420;2022-09-09T14:22:05;99123.69;;;23.14;51.76
67740;BME280;54536;50.090;14.420;2022-09-09T14:24:32;99113.25;;;23.24;52.18
67740;BME280;54536;50.090;14.420;2022-09-09T14:26:58;99114.66;;;23.27;52.68
67740;BME280;54536;50.090;14.420;2022-09-09T14:29:24;99113.84;;;23.26;51.78
67740;BME280;54536;50.090;14.420;2022-09-09T14:31:52;99120.47;;;23.24;52.62
67740;BME280;54536;50.090;14.420;2022-09-09T14:34:18;99110.81;;;23.23;52.10
67740;BME280;54536;50.090;14.420;2022-09-09T14:36:44;99111.00;;;23.21;51.91
67740;BME280;54536;50.090;14.420;2022-09-09T14:39:12;99110.44;;;23.19;52.21
67740;BME280;54536;50.090;14.420;2022-09-09T14:41:38;99101.94;;;23.22;52.70
67740;BME280;54536;50.090;14.420;2022-09-09T14:44:04;99097.59;;;23.21;52.78
67740;BME280;54536;50.090;14.420;2022-09-09T14:46:30;99094.81;;;23.28;52.49
67740;BME280;54536;50.090;14.420;2022-09-09T14:48:58;99102.78;;;23.34;53.11
67740;BME280;54536;50.090;14.420;2022-09-09T14:51:26;99100.81;;;23.30;51.89
67740;BME280;54536;50.090;14.420;2022-09-09T14:53:57;99101.66;;;23.12;52.84
67740;BME280;54536;50.090;14.420;2022-09-09T14:56:30;99095.59;;;23.17;52.97
67740;BME280;54536;50.090;14.420;2022-09-09T14:58:58;99095.25;;;23.13;53.59
67740;BME280;54536;50.090;14.420;2022-09-09T15:01:27;99094.47;;;23.24;53.64
67740;BME280;54536;50.090;14.420;2022-09-09T15:03:57;99095.78;;;23.33;53.82
67740;BME280;54536;50.090;14.420;2022-09-09T15:06:26;99088.28;;;23.24;54.01
67740;BME280;54536;50.090;14.420;2022-09-09T15:08:53;99087.75;;;23.33;53.24
67740;BME280;54536;50.090;14.420;2022-09-09T15:11:20;99087.38;;;23.30;53.79
67740;BME280;54536;50.090;14.420;2022-09-09T15:13:51;99094.91;;;23.40;53.36
67740;BME280;54536;50.090;14.420;2022-09-09T15:16:20;99086.47;;;23.36;53.17
67740;BME280;54536;50.090;14.420;2022-09-09T15:18:51;99091.34;;;23.27;52.49
67740;BME280;54536;50.090;14.420;2022-09-09T15:21:21;99082.03;;;23.30;52.55
67740;BME280;54536;50.090;14.420;2022-09-09T15:23:49;99086.75;;;23.16;51.72
67740;BME280;54536;50.090;14.420;2022-09-09T15:26:17;99089.34;;;23.23;52.21
67740;BME280;54536;50.090;14.420;2022-09-09T15:28:45;99086.09;;;23.02;52.12
67740;BME280;54536;50.090;14.420;2022-09-09T15:31:15;99092.91;;;23.17;51.73
67740;BME280;54536;50.090;14.420;2022-09-09T15:33:55;99088.38;;;23.17;51.78
67740;BME280;54536;50.090;14.420;2022-09-09T15:39:02;99094.19;;;23.14;51.49
67740;BME280;54536;50.090;14.420;2022-09-09T15:41:29;99093.69;;;23.05;51.54
67740;BME280;54536;50.090;14.420;2022-09-09T15:43:57;99093.59;;;22.94;52.09
67740;BME280;54536;50.090;14.420;2022-09-09T15:49:04;99087.94;;;23.02;51.97